createdAt,value
2018-10-02T00:00:56.076Z,10.17
2018-10-02T00:01:56.090Z,10.11
2018-10-02T00:03:50.528Z,10.15
2018-10-02T00:04:50.486Z,10.11
2018-10-02T00:06:45.937Z,10.02
2018-10-02T00:07:45.452Z,9.99
2018-10-02T00:09:39.376Z,9.99
2018-10-02T00:10:39.862Z,10.05
2018-10-02T00:12:33.796Z,10.11
2018-10-02T00:13:33.766Z,10.11
2018-10-02T00:15:30.240Z,10.08
2018-10-02T00:16:30.235Z,10.07
2018-10-02T00:18:24.687Z,10.07
2018-10-02T00:19:24.154Z,10.10
2018-10-02T00:21:19.603Z,10.17
2018-10-02T00:22:18.603Z,10.18
2018-10-02T00:24:15.127Z,10.20
2018-10-02T00:25:15.117Z,10.10
2018-10-02T00:27:11.105Z,10.02
2018-10-02T00:28:11.064Z,10.15
2018-10-02T00:30:05.030Z,10.17
2018-10-02T00:31:04.487Z,10.23
2018-10-02T00:32:58.951Z,10.17
2018-10-02T00:33:58.925Z,10.23
2018-10-02T00:35:55.850Z,10.17
2018-10-02T00:36:55.351Z,10.15
2018-10-02T00:38:51.299Z,10.21
2018-10-02T00:39:49.267Z,10.25
2018-10-02T00:41:43.716Z,10.23
2018-10-02T00:42:43.711Z,10.25
2018-10-02T00:44:40.148Z,10.21
2018-10-02T00:45:39.623Z,10.20
2018-10-02T00:47:35.587Z,10.15
2018-10-02T00:48:35.577Z,10.31
2018-10-02T00:50:29.036Z,10.23
2018-10-02T00:51:29.005Z,10.20
2018-10-02T00:53:23.467Z,10.15
2018-10-02T00:54:23.949Z,10.20
2018-10-02T00:56:19.338Z,10.29
2018-10-02T00:57:19.346Z,10.18
2018-10-02T00:59:15.298Z,10.20
2018-10-02T01:00:15.274Z,10.21
2018-10-02T01:02:11.236Z,10.20
2018-10-02T01:03:11.207Z,10.17
2018-10-02T01:05:05.623Z,10.23
2018-10-02T01:06:06.174Z,10.20
2018-10-02T01:08:00.058Z,10.15
2018-10-02T01:09:00.584Z,10.23
2018-10-02T01:10:54.495Z,10.05
2018-10-02T01:11:54.480Z,10.05
2018-10-02T01:13:48.431Z,10.03
2018-10-02T01:14:47.901Z,10.08
2018-10-02T01:16:41.301Z,10.08
2018-10-02T01:17:41.853Z,10.14
2018-10-02T01:19:35.785Z,10.11
2018-10-02T01:20:35.744Z,10.02
2018-10-02T01:22:30.246Z,10.10
2018-10-02T01:23:30.688Z,9.99
2018-10-02T01:25:24.623Z,10.07
2018-10-02T01:26:24.608Z,10.02
2018-10-02T01:28:20.065Z,10.11
2018-10-02T01:29:19.063Z,10.05
2018-10-02T01:31:13.464Z,10.17
2018-10-02T01:32:13.464Z,10.20
2018-10-02T01:34:07.899Z,10.18
2018-10-02T01:35:07.888Z,10.18
2018-10-02T01:37:01.352Z,10.21
2018-10-02T01:38:01.846Z,10.18
2018-10-02T01:39:55.785Z,10.20
2018-10-02T01:40:55.754Z,10.20
2018-10-02T01:42:50.224Z,10.20
2018-10-02T01:43:50.192Z,10.11
2018-10-02T01:45:46.148Z,10.05
2018-10-02T01:46:46.110Z,10.15
2018-10-02T01:48:41.491Z,10.03
2018-10-02T01:49:40.563Z,10.14
2018-10-02T01:51:36.510Z,10.10
2018-10-02T01:52:36.478Z,10.15
2018-10-02T01:54:30.945Z,10.08
2018-10-02T01:55:30.905Z,10.02
2018-10-02T01:57:25.860Z,10.05
2018-10-02T01:58:26.864Z,10.03
2018-10-02T02:00:21.295Z,10.07
2018-10-02T02:01:21.283Z,10.05
2018-10-02T02:03:16.739Z,10.11
2018-10-02T02:04:15.696Z,10.02
2018-10-02T02:06:10.131Z,10.14
2018-10-02T02:07:10.677Z,10.05
2018-10-02T02:09:04.080Z,10.08
2018-10-02T02:10:04.084Z,10.25
2018-10-02T02:11:57.998Z,10.21
2018-10-02T02:12:58.516Z,10.26
2018-10-02T02:14:52.951Z,10.29
2018-10-02T02:15:52.425Z,10.23
2018-10-02T02:17:45.846Z,10.26
2018-10-02T02:18:45.846Z,10.23
2018-10-02T02:20:42.292Z,10.07
2018-10-02T02:21:41.783Z,10.14
2018-10-02T02:23:35.174Z,10.21
2018-10-02T02:24:35.182Z,10.20
2018-10-02T02:26:30.135Z,10.25
2018-10-02T02:27:29.607Z,10.28
2018-10-02T02:29:25.570Z,10.20
2018-10-02T02:30:25.554Z,10.18
2018-10-02T02:32:21.001Z,10.18
2018-10-02T02:33:20.506Z,10.21
2018-10-02T02:35:14.431Z,10.25
2018-10-02T02:36:14.401Z,10.23
2018-10-02T02:38:10.374Z,10.20
2018-10-02T02:39:10.344Z,10.23
2018-10-02T02:41:06.303Z,10.20
2018-10-02T02:42:06.309Z,10.21
2018-10-02T02:44:01.742Z,10.10
2018-10-02T02:44:59.726Z,10.11
2018-10-02T02:46:55.662Z,10.10
2018-10-02T02:47:57.159Z,10.08
2018-10-02T02:49:51.612Z,10.08
2018-10-02T02:50:51.572Z,10.03
2018-10-02T02:52:47.017Z,10.08
2018-10-02T02:53:46.525Z,10.07
2018-10-02T02:55:39.463Z,10.08
2018-10-02T02:56:39.439Z,10.02
2018-10-02T02:58:33.877Z,10.07
2018-10-02T02:59:34.378Z,10.05
2018-10-02T03:01:27.270Z,10.14
2018-10-02T03:02:27.812Z,10.03
2018-10-02T03:04:23.254Z,10.00
2018-10-02T03:05:23.223Z,10.05
2018-10-02T03:07:18.152Z,10.11
2018-10-02T03:08:17.631Z,10.07
2018-10-02T03:10:13.116Z,10.08
2018-10-02T03:11:12.049Z,10.11
2018-10-02T03:13:06.023Z,10.03
2018-10-02T03:14:05.461Z,10.10
2018-10-02T03:16:01.471Z,10.15
2018-10-02T03:17:01.397Z,10.15
2018-10-02T03:18:58.357Z,10.10
2018-10-02T03:19:57.306Z,10.14
2018-10-02T03:21:51.855Z,10.14
2018-10-02T03:22:51.761Z,10.07
2018-10-02T03:24:45.211Z,10.05
2018-10-02T03:25:45.195Z,10.11
2018-10-02T03:27:41.145Z,10.03
2018-10-02T03:28:41.135Z,10.02
2018-10-02T03:30:35.553Z,10.08
2018-10-02T03:31:36.079Z,10.05
2018-10-02T03:33:32.001Z,10.11
2018-10-02T03:34:31.455Z,10.17
2018-10-02T03:36:27.336Z,10.20
2018-10-02T03:37:25.869Z,10.03
2018-10-02T03:39:20.315Z,10.13
2018-10-02T03:40:20.310Z,10.05
2018-10-02T03:42:15.269Z,10.05
2018-10-02T03:43:15.259Z,10.03
2018-10-02T03:45:09.234Z,10.10
2018-10-02T03:46:09.696Z,10.14
2018-10-02T03:48:02.625Z,10.07
2018-10-02T03:49:03.116Z,10.25
2018-10-02T03:50:57.023Z,10.23
2018-10-02T03:51:57.023Z,10.18
2018-10-02T03:53:51.501Z,10.20
2018-10-02T03:54:51.982Z,10.20
2018-10-02T03:56:45.863Z,10.17
2018-10-02T03:57:46.388Z,10.23
2018-10-02T03:59:40.305Z,10.18
2018-10-02T04:00:40.289Z,10.23
2018-10-02T04:02:36.260Z,10.20
2018-10-02T04:03:36.787Z,10.26
2018-10-02T04:05:31.160Z,10.23
2018-10-02T04:06:30.645Z,10.26
2018-10-02T04:08:26.097Z,10.28
2018-10-02T04:09:25.594Z,10.17
2018-10-02T04:11:18.504Z,10.18
2018-10-02T04:12:18.517Z,10.17
2018-10-02T04:14:12.924Z,10.20
2018-10-02T04:15:12.919Z,10.20
2018-10-02T04:17:08.843Z,10.18
2018-10-02T04:18:08.870Z,10.20
2018-10-02T04:20:05.730Z,10.28
2018-10-02T04:21:04.770Z,10.17
2018-10-02T04:22:59.236Z,10.26
2018-10-02T04:23:58.746Z,10.29
2018-10-02T04:25:52.609Z,10.33
2018-10-02T04:26:53.134Z,10.29
2018-10-02T04:28:47.572Z,10.28
2018-10-02T04:29:46.031Z,10.38
2018-10-02T04:31:40.496Z,10.32
2018-10-02T04:32:40.987Z,10.33
2018-10-02T04:34:34.943Z,10.38
2018-10-02T04:35:35.421Z,10.44
2018-10-02T04:37:29.329Z,10.38
2018-10-02T04:38:29.328Z,10.42
2018-10-02T04:40:23.809Z,10.39
2018-10-02T04:41:23.766Z,10.33
2018-10-02T04:43:20.637Z,10.42
2018-10-02T04:44:19.649Z,10.47
2018-10-02T04:46:14.605Z,10.42
2018-10-02T04:47:14.108Z,10.44
2018-10-02T04:49:11.054Z,10.39
2018-10-02T04:50:10.011Z,10.44
2018-10-02T04:52:05.968Z,10.46
2018-10-02T04:53:05.970Z,10.51
2018-10-02T04:55:01.905Z,10.55
2018-10-02T04:56:01.914Z,10.55
2018-10-02T04:57:57.838Z,10.54
2018-10-02T04:58:59.328Z,10.67
2018-10-02T05:00:52.242Z,10.66
2018-10-02T05:01:52.245Z,10.65
2018-10-02T05:03:48.131Z,10.67
2018-10-02T05:04:48.698Z,10.66
2018-10-02T05:06:43.570Z,10.73
2018-10-02T05:07:42.626Z,10.67
2018-10-02T05:09:37.052Z,10.73
2018-10-02T05:10:37.534Z,10.72
2018-10-02T05:12:32.951Z,10.75
2018-10-02T05:13:32.923Z,10.76
2018-10-02T05:15:27.885Z,10.73
2018-10-02T05:16:27.357Z,10.75
2018-10-02T05:18:21.827Z,10.76
2018-10-02T05:19:21.779Z,10.76
2018-10-02T05:21:17.802Z,10.84
2018-10-02T05:22:18.235Z,10.75
2018-10-02T05:24:12.170Z,10.84
2018-10-02T05:25:12.668Z,10.88
2018-10-02T05:27:06.641Z,10.88
2018-10-02T05:28:06.570Z,10.80
2018-10-02T05:30:01.022Z,10.95
2018-10-02T05:31:01.949Z,10.88
2018-10-02T05:32:55.485Z,10.94
2018-10-02T05:33:55.397Z,11.00
2018-10-02T05:35:50.339Z,10.94
2018-10-02T05:36:49.843Z,11.03
2018-10-02T05:38:46.266Z,11.03
2018-10-02T05:39:47.279Z,11.05
2018-10-02T05:41:40.206Z,11.05
2018-10-02T05:42:40.203Z,11.13
2018-10-02T05:44:37.070Z,11.16
2018-10-02T05:45:36.640Z,11.13
2018-10-02T05:47:30.359Z,11.21
2018-10-02T05:48:31.862Z,11.20
2018-10-02T05:50:26.317Z,11.12
2018-10-02T05:51:26.291Z,11.12
2018-10-02T05:53:20.693Z,11.23
2018-10-02T05:54:21.241Z,11.13
2018-10-02T05:56:16.658Z,11.18
2018-10-02T05:57:16.617Z,11.18
2018-10-02T05:59:13.063Z,11.18
2018-10-02T06:00:12.548Z,11.18
2018-10-02T06:02:06.785Z,11.16
2018-10-02T06:03:05.993Z,11.16
2018-10-02T06:05:00.408Z,11.28
2018-10-02T06:06:00.427Z,11.20
2018-10-02T06:07:54.912Z,11.16
2018-10-02T06:08:54.861Z,11.20
2018-10-02T06:10:50.821Z,11.20
2018-10-02T06:11:50.859Z,11.24
2018-10-02T06:13:45.231Z,11.24
2018-10-02T06:14:45.882Z,11.24
2018-10-02T06:16:41.178Z,11.31
2018-10-02T06:17:41.163Z,11.30
2018-10-02T06:19:38.107Z,11.33
2018-10-02T06:20:37.075Z,11.35
2018-10-02T06:22:33.027Z,11.33
2018-10-02T06:23:31.527Z,11.33
2018-10-02T06:25:25.929Z,11.35
2018-10-02T06:26:25.926Z,11.41
2018-10-02T06:28:21.910Z,11.41
2018-10-02T06:29:22.061Z,11.39
2018-10-02T06:31:17.801Z,11.34
2018-10-02T06:32:17.779Z,11.31
2018-10-02T06:34:13.744Z,11.43
2018-10-02T06:35:14.227Z,11.42
2018-10-02T06:37:09.660Z,11.42
2018-10-02T06:38:09.718Z,11.41
2018-10-02T06:40:05.630Z,11.42
2018-10-02T06:41:05.600Z,11.35
2018-10-02T06:42:59.057Z,11.42
2018-10-02T06:43:59.568Z,11.46
2018-10-02T06:45:53.465Z,11.39
2018-10-02T06:46:53.459Z,11.38
2018-10-02T06:48:48.044Z,11.31
2018-10-02T06:49:47.897Z,11.27
2018-10-02T06:51:42.401Z,11.27
2018-10-02T06:52:42.639Z,11.30
2018-10-02T06:54:36.748Z,11.23
2018-10-02T06:55:36.737Z,11.20
2018-10-02T06:57:30.684Z,11.05
2018-10-02T06:58:30.688Z,11.02
2018-10-02T07:00:25.694Z,11.00
2018-10-02T07:01:24.619Z,10.91
2018-10-02T07:03:19.009Z,10.84
2018-10-02T07:04:19.566Z,10.85
2018-10-02T07:06:13.431Z,10.76
2018-10-02T07:07:13.420Z,10.77
2018-10-02T07:09:07.936Z,10.70
2018-10-02T07:10:07.869Z,10.75
2018-10-02T07:12:02.831Z,10.79
2018-10-02T07:13:02.815Z,10.75
2018-10-02T07:14:56.742Z,10.84
2018-10-02T07:15:56.724Z,10.85
2018-10-02T07:17:52.678Z,10.84
2018-10-02T07:18:52.652Z,10.94
2018-10-02T07:20:47.124Z,10.88
2018-10-02T07:21:47.606Z,10.92
2018-10-02T07:23:41.469Z,11.00
2018-10-02T07:24:41.474Z,11.00
2018-10-02T07:26:35.970Z,11.10
2018-10-02T07:27:35.978Z,11.00
2018-10-02T07:29:30.336Z,10.92
2018-10-02T07:30:30.395Z,10.91
2018-10-02T07:32:23.840Z,10.90
2018-10-02T07:33:23.761Z,10.90
2018-10-02T07:35:18.231Z,10.94
2018-10-02T07:36:18.723Z,10.92
2018-10-02T07:38:12.657Z,10.91
2018-10-02T07:39:12.629Z,10.92
2018-10-02T07:41:07.081Z,10.91
2018-10-02T07:42:08.102Z,10.91
2018-10-02T07:44:01.518Z,10.98
2018-10-02T07:45:01.561Z,10.91
2018-10-02T07:46:55.936Z,10.85
2018-10-02T07:47:56.446Z,10.91
2018-10-02T07:49:51.824Z,10.92
2018-10-02T07:52:07.253Z,10.98
2018-10-02T07:53:04.828Z,10.98
2018-10-02T07:55:01.279Z,11.05
2018-10-02T07:57:56.114Z,11.00
2018-10-02T07:58:55.125Z,11.02
2018-10-02T08:00:51.544Z,11.06
2018-10-02T08:01:50.561Z,11.08
2018-10-02T08:04:45.012Z,11.10
2018-10-02T08:06:39.879Z,11.15
2018-10-02T08:07:39.384Z,11.16
2018-10-02T08:09:32.310Z,11.20
2018-10-02T08:12:31.266Z,11.30
2018-10-02T08:15:21.182Z,11.28
2018-10-02T08:16:22.200Z,11.26
2018-10-02T08:23:29.524Z,11.24
2018-10-02T08:28:29.861Z,11.26
2018-10-02T08:29:29.973Z,11.24
2018-10-02T08:31:23.804Z,11.21
2018-10-02T08:32:23.289Z,11.10
2018-10-02T08:34:18.244Z,11.21
2018-10-02T08:35:17.754Z,11.09
2018-10-02T08:37:11.133Z,11.05
2018-10-02T08:38:11.132Z,11.09
2018-10-02T08:40:06.088Z,11.08
2018-10-02T08:41:06.091Z,11.02
2018-10-02T08:42:58.987Z,10.97
2018-10-02T08:43:59.191Z,11.05
2018-10-02T08:45:53.956Z,11.02
2018-10-02T08:46:53.451Z,11.05
2018-10-02T08:48:48.380Z,11.05
2018-10-02T08:49:46.843Z,11.08
2018-10-02T08:51:41.878Z,11.12
2018-10-02T08:52:41.293Z,11.09
2018-10-02T08:54:35.265Z,11.13
2018-10-02T08:55:34.731Z,11.10
2018-10-02T08:57:28.153Z,11.21
2018-10-02T08:58:28.153Z,11.20
2018-10-02T09:00:22.633Z,11.18
2018-10-02T09:01:22.582Z,11.24
2018-10-02T09:03:16.624Z,11.21
2018-10-02T09:04:15.989Z,11.26
2018-10-02T09:06:10.955Z,11.27
2018-10-02T09:07:10.421Z,11.27
2018-10-02T09:09:04.881Z,11.33
2018-10-02T09:10:04.855Z,11.30
2018-10-02T09:11:58.307Z,11.26
2018-10-02T09:12:58.323Z,11.30
2018-10-02T09:14:53.232Z,11.28
2018-10-02T09:15:52.430Z,11.24
2018-10-02T09:17:46.654Z,11.30
2018-10-02T09:18:46.185Z,11.27
2018-10-02T09:20:41.571Z,11.30
2018-10-02T09:21:40.633Z,11.27
2018-10-02T09:23:35.546Z,11.27
2018-10-02T09:24:35.063Z,11.27
2018-10-02T09:26:28.478Z,11.24
2018-10-02T09:27:28.459Z,11.26
2018-10-02T09:29:22.894Z,11.27
2018-10-02T09:30:23.894Z,11.24
2018-10-02T09:32:17.837Z,11.30
2018-10-02T09:33:17.345Z,11.24
2018-10-02T09:35:10.742Z,11.33
2018-10-02T09:36:10.756Z,11.26
2018-10-02T09:38:05.181Z,11.21
2018-10-02T09:39:05.190Z,11.20
2018-10-02T09:41:00.133Z,11.21
2018-10-02T09:41:59.594Z,11.23
2018-10-02T09:43:54.047Z,11.16
2018-10-02T09:44:54.006Z,11.13
2018-10-02T09:46:48.434Z,11.15
2018-10-02T09:47:48.946Z,11.13
2018-10-02T09:49:41.927Z,11.06
2018-10-02T09:50:41.945Z,11.03
2018-10-02T09:52:35.816Z,11.02
2018-10-02T09:53:35.285Z,10.91
2018-10-02T09:55:30.751Z,10.92
2018-10-02T09:56:29.767Z,10.94
2018-10-02T09:58:25.716Z,10.91
2018-10-02T09:59:26.185Z,10.87
2018-10-02T10:01:21.103Z,10.87
2018-10-02T10:02:20.651Z,10.91
2018-10-02T10:04:17.114Z,10.92
2018-10-02T10:05:16.551Z,10.95
2018-10-02T10:07:11.987Z,10.90
2018-10-02T10:08:11.950Z,10.88
2018-10-02T10:10:08.396Z,10.80
2018-10-02T10:11:07.891Z,10.80
2018-10-02T10:13:05.839Z,10.91
2018-10-02T10:14:05.785Z,10.94
2018-10-02T10:16:01.235Z,10.87
2018-10-02T10:17:00.335Z,10.92
2018-10-02T10:18:54.685Z,10.87
2018-10-02T10:19:55.205Z,10.76
2018-10-02T10:21:49.155Z,10.84
2018-10-02T10:22:49.124Z,10.84
2018-10-02T10:24:43.583Z,10.87
2018-10-02T10:25:42.561Z,10.91
2018-10-02T10:27:38.003Z,10.88
2018-10-02T10:28:37.595Z,10.85
2018-10-02T10:30:32.954Z,10.91
2018-10-02T10:31:33.425Z,10.94
2018-10-02T10:33:27.409Z,10.85
2018-10-02T10:34:27.353Z,10.92
2018-10-02T10:36:22.757Z,11.00
2018-10-02T10:37:21.724Z,11.03
2018-10-02T10:39:17.181Z,11.00
2018-10-02T10:40:16.129Z,11.13
2018-10-02T10:42:12.594Z,11.15
2018-10-02T10:43:12.075Z,11.13
2018-10-02T10:45:09.036Z,11.12
2018-10-02T10:46:09.511Z,11.12
2018-10-02T10:48:04.210Z,11.15
2018-10-02T10:49:03.266Z,11.15
2018-10-02T10:50:59.232Z,11.13
2018-10-02T10:51:59.195Z,11.24
2018-10-02T10:53:55.125Z,11.18
2018-10-02T10:54:55.110Z,11.13
2018-10-02T10:56:51.543Z,11.15
2018-10-02T10:59:06.052Z,11.16
2018-10-02T11:00:05.466Z,11.21
2018-10-02T11:02:01.931Z,11.18
2018-10-02T11:03:01.381Z,11.16
2018-10-02T11:04:55.853Z,11.15
2018-10-02T11:05:55.801Z,11.27
2018-10-02T11:07:52.258Z,11.21
2018-10-02T11:08:52.263Z,11.21
2018-10-02T11:10:50.685Z,11.09
2018-10-02T11:11:49.861Z,11.21
2018-10-02T11:13:43.288Z,11.21
2018-10-02T11:14:43.244Z,11.30
2018-10-02T11:16:37.207Z,11.26
2018-10-02T11:17:36.681Z,11.27
2018-10-02T11:19:32.655Z,11.26
2018-10-02T11:20:32.606Z,11.26
2018-10-02T11:22:29.554Z,11.27
2018-10-02T11:23:28.604Z,11.33
2018-10-02T11:25:24.575Z,11.38
2018-10-02T11:26:24.519Z,11.35
2018-10-02T11:28:23.463Z,11.48
2018-10-02T11:29:22.414Z,11.45
2018-10-02T11:31:18.377Z,11.53
2018-10-02T11:32:17.373Z,11.53
2018-10-02T11:34:14.213Z,11.61
2018-10-02T11:35:13.328Z,11.49
2018-10-02T11:37:07.732Z,11.52
2018-10-02T11:38:07.223Z,11.56
2018-10-02T11:40:01.680Z,11.64
2018-10-02T11:41:01.652Z,11.59
2018-10-02T11:42:56.129Z,11.63
2018-10-02T11:43:56.629Z,11.66
2018-10-02T11:45:51.977Z,11.71
2018-10-02T11:46:51.966Z,11.76
2018-10-02T11:48:46.388Z,11.71
2018-10-02T11:49:46.422Z,11.76
2018-10-02T11:51:40.866Z,11.78
2018-10-02T11:52:40.824Z,11.73
2018-10-02T11:55:34.313Z,11.88
2018-10-02T11:57:28.775Z,12.01
2018-10-02T11:58:28.688Z,11.95
2018-10-02T12:00:25.668Z,12.18
2018-10-02T12:01:23.359Z,12.15
2018-10-02T12:03:20.115Z,12.23
2018-10-02T12:04:19.919Z,12.19
2018-10-02T12:06:13.409Z,12.33
2018-10-02T12:07:13.876Z,12.29
2018-10-02T12:09:08.882Z,12.23
2018-10-02T12:10:08.290Z,12.28
2018-10-02T12:12:04.756Z,12.36
2018-10-02T12:13:04.291Z,12.44
2018-10-02T12:14:57.217Z,12.47
2018-10-02T12:15:57.169Z,12.55
2018-10-02T12:17:52.124Z,12.58
2018-10-02T12:18:51.605Z,12.52
2018-10-02T12:20:46.549Z,12.58
2018-10-02T12:21:46.029Z,12.61
2018-10-02T12:23:39.521Z,12.66
2018-10-02T12:24:39.469Z,12.65
2018-10-02T12:26:32.888Z,12.78
2018-10-02T12:27:33.419Z,12.73
2018-10-02T12:29:29.337Z,12.81
2018-10-02T12:30:28.838Z,12.91
2018-10-02T12:32:23.304Z,12.83
2018-10-02T12:33:23.272Z,12.89
2018-10-02T12:35:18.217Z,12.94
2018-10-02T12:36:17.702Z,12.99
2018-10-02T12:38:12.176Z,13.07
2018-10-02T12:39:12.216Z,13.09
2018-10-02T12:41:06.640Z,13.06
2018-10-02T12:43:21.083Z,13.20
2018-10-02T12:44:21.062Z,13.17
2018-10-02T12:46:15.036Z,13.29
2018-10-02T12:47:14.493Z,13.36
2018-10-02T12:49:10.952Z,13.39
2018-10-02T12:50:10.450Z,13.44
2018-10-02T12:52:05.950Z,13.47
2018-10-02T12:53:04.895Z,13.44
2018-10-02T12:55:00.330Z,13.47
2018-10-02T12:55:59.358Z,13.54
2018-10-02T12:57:53.789Z,13.51
2018-10-02T12:58:53.772Z,13.54
2018-10-02T13:00:47.728Z,13.60
2018-10-02T13:01:47.215Z,13.57
2018-10-02T13:03:41.639Z,13.63
2018-10-02T13:04:41.613Z,13.68
2018-10-02T13:06:37.059Z,13.73
2018-10-02T13:07:36.023Z,13.75
2018-10-02T13:09:30.472Z,13.86
2018-10-02T13:10:29.485Z,13.91
2018-10-02T13:12:23.929Z,13.94
2018-10-02T13:13:24.455Z,13.87
2018-10-02T13:15:18.385Z,13.90
2018-10-02T13:16:18.354Z,13.91
2018-10-02T13:18:25.764Z,13.93
2018-10-02T13:19:26.228Z,13.95
2018-10-02T13:21:20.515Z,14.03
2018-10-02T13:22:31.748Z,13.99
2018-10-02T13:24:15.521Z,13.84
2018-10-02T13:27:11.852Z,13.88
2018-10-02T13:28:11.850Z,13.94
2018-10-02T13:30:10.785Z,13.79
2018-10-02T13:31:05.347Z,13.88
2018-10-02T13:33:01.336Z,13.78
2018-10-02T13:35:16.798Z,13.81
2018-10-02T13:36:16.757Z,13.78
2018-10-02T13:38:12.237Z,13.72
2018-10-02T13:39:12.744Z,13.81
2018-10-02T13:41:06.399Z,13.72
2018-10-02T13:42:06.397Z,13.79
2018-10-02T13:44:02.340Z,13.76
2018-10-02T13:45:02.309Z,13.83
2018-10-02T13:46:55.793Z,13.95
2018-10-02T13:47:55.762Z,13.93
2018-10-02T13:49:50.224Z,14.02
2018-10-02T13:50:50.200Z,14.08
2018-10-02T13:52:45.145Z,14.08
2018-10-02T13:53:44.621Z,14.12
2018-10-02T13:55:39.057Z,14.13
2018-10-02T13:56:39.063Z,14.13
2018-10-02T13:58:35.062Z,14.24
2018-10-02T13:59:35.014Z,14.23
2018-10-02T14:01:29.509Z,14.33
2018-10-02T14:02:29.437Z,14.38
2018-10-02T14:04:23.411Z,14.46
2018-10-02T14:05:23.395Z,14.48
2018-10-02T14:07:17.336Z,14.41
2018-10-02T14:08:17.416Z,14.49
2018-10-02T14:10:10.755Z,14.46
2018-10-02T14:11:10.749Z,14.45
2018-10-02T14:13:04.193Z,14.38
2018-10-02T14:14:04.701Z,14.36
2018-10-02T14:16:00.106Z,14.38
2018-10-02T14:17:00.082Z,14.34
2018-10-02T14:18:56.008Z,14.38
2018-10-02T14:19:56.020Z,14.39
2018-10-02T14:21:50.977Z,14.36
2018-10-02T14:22:51.390Z,14.36
2018-10-02T14:24:45.415Z,14.36
2018-10-02T14:25:45.897Z,14.28
2018-10-02T14:27:38.409Z,14.27
2018-10-02T14:28:38.362Z,14.27
2018-10-02T14:30:34.296Z,14.34
2018-10-02T14:31:34.372Z,14.33
2018-10-02T14:33:28.755Z,14.28
2018-10-02T14:34:28.727Z,14.31
2018-10-02T14:36:25.194Z,14.26
2018-10-02T14:37:25.131Z,14.26
2018-10-02T14:39:18.086Z,14.27
2018-10-02T14:40:18.088Z,14.16
2018-10-02T14:42:13.035Z,14.21
2018-10-02T14:43:12.600Z,14.28
2018-10-02T14:45:06.992Z,14.19
2018-10-02T14:46:07.010Z,14.28
2018-10-02T14:48:02.443Z,14.26
2018-10-02T14:49:02.447Z,14.28
2018-10-02T14:50:57.437Z,14.28
2018-10-02T14:51:57.429Z,14.36
2018-10-02T14:53:50.843Z,14.44
2018-10-02T14:54:51.369Z,14.44
2018-10-02T14:56:45.284Z,14.46
2018-10-02T14:57:45.264Z,14.48
2018-10-02T14:59:39.728Z,14.59
2018-10-02T15:00:40.238Z,14.61
2018-10-02T15:02:36.236Z,14.60
2018-10-02T15:03:35.700Z,14.60
2018-10-02T15:05:30.649Z,14.75
2018-10-02T15:06:30.143Z,14.75
2018-10-02T15:08:25.103Z,14.85
2018-10-02T15:09:25.596Z,14.85
2018-10-02T15:11:19.058Z,14.86
2018-10-02T15:12:20.486Z,14.83
2018-10-02T15:14:16.542Z,14.93
2018-10-02T15:15:15.012Z,15.00
2018-10-02T15:17:10.428Z,15.01
2018-10-02T15:18:09.536Z,14.95
2018-10-02T15:20:05.386Z,15.01
2018-10-02T15:21:05.374Z,15.07
2018-10-02T15:22:58.993Z,15.08
2018-10-02T15:23:59.927Z,15.15
2018-10-02T15:25:53.209Z,15.16
2018-10-02T15:26:53.780Z,14.95
2018-10-02T15:28:46.728Z,15.08
2018-10-02T15:31:07.157Z,15.04
2018-10-02T15:32:03.617Z,15.07
2018-10-02T15:34:23.204Z,15.13
2018-10-02T15:35:23.692Z,15.05
2018-10-02T15:37:17.406Z,15.07
2018-10-02T15:38:17.374Z,15.18
2018-10-02T15:40:11.262Z,15.05
2018-10-02T15:41:10.763Z,15.10
2018-10-02T15:43:07.714Z,15.15
2018-10-02T15:44:08.141Z,15.22
2018-10-02T15:46:00.130Z,15.18
2018-10-02T15:47:01.127Z,15.19
2018-10-02T15:48:57.575Z,15.22
2018-10-02T15:49:57.575Z,15.25
2018-10-02T15:51:52.003Z,15.31
2018-10-02T15:52:52.008Z,15.35
2018-10-02T15:54:46.492Z,15.34
2018-10-02T15:55:46.453Z,15.34
2018-10-02T15:57:39.926Z,15.33
2018-10-02T15:58:39.897Z,15.41
2018-10-02T16:00:35.278Z,15.34
2018-10-02T16:01:34.321Z,15.51
2018-10-02T16:03:28.383Z,15.43
2018-10-02T16:04:27.735Z,15.45
2018-10-02T16:06:24.736Z,15.51
2018-10-02T16:07:23.685Z,15.44
2018-10-02T16:09:18.152Z,15.37
2018-10-02T16:10:17.145Z,15.41
2018-10-02T16:12:14.085Z,15.47
2018-10-02T16:13:11.589Z,15.45
2018-10-02T16:15:05.536Z,15.40
2018-10-02T16:16:05.025Z,15.44
2018-10-02T16:18:01.009Z,15.49
2018-10-02T16:18:59.473Z,15.44
2018-10-02T16:20:56.860Z,15.44
2018-10-02T16:21:55.485Z,15.45
2018-10-02T16:23:50.302Z,15.45
2018-10-02T16:24:48.854Z,15.47
2018-10-02T16:26:43.259Z,15.45
2018-10-02T16:27:43.300Z,15.45
2018-10-02T16:29:39.716Z,15.45
2018-10-02T16:30:37.725Z,15.40
2018-10-02T16:32:32.145Z,15.34
2018-10-02T16:33:32.147Z,15.33
2018-10-02T16:35:27.624Z,15.33
2018-10-02T16:36:26.614Z,15.34
2018-10-02T16:38:21.077Z,15.25
2018-10-02T16:39:21.032Z,15.25
2018-10-02T16:41:15.474Z,15.12
2018-10-02T16:42:15.491Z,15.05
2018-10-02T16:44:10.434Z,15.04
2018-10-02T16:45:10.453Z,14.97
2018-10-02T16:47:05.389Z,14.97
2018-10-02T16:48:04.336Z,14.98
2018-10-02T16:49:58.791Z,14.93
2018-10-02T16:50:58.788Z,14.85
2018-10-02T16:52:53.237Z,14.80
2018-10-02T16:53:53.224Z,14.79
2018-10-02T16:55:46.667Z,14.75
2018-10-02T16:56:47.241Z,14.80
2018-10-02T16:58:56.189Z,14.74
2018-10-02T17:00:59.596Z,14.77
2018-10-02T17:01:57.869Z,14.80
2018-10-02T17:05:47.812Z,14.77
2018-10-02T17:06:47.104Z,14.64
2018-10-02T17:08:41.524Z,14.75
2018-10-02T17:09:41.542Z,14.77
2018-10-02T17:11:37.967Z,14.70
2018-10-02T17:12:37.452Z,14.63
2018-10-02T17:14:30.880Z,14.71
2018-10-02T17:15:30.887Z,14.66
2018-10-02T17:17:25.354Z,14.63
2018-10-02T17:18:25.852Z,14.74
2018-10-02T17:20:19.304Z,14.66
2018-10-02T17:21:18.757Z,14.66
2018-10-02T17:23:12.187Z,14.71
2018-10-02T17:24:12.158Z,14.66
2018-10-02T17:26:05.622Z,14.56
2018-10-02T17:27:05.595Z,14.60
2018-10-02T17:28:59.120Z,14.57
2018-10-02T17:29:59.044Z,14.52
2018-10-02T17:31:55.093Z,14.46
2018-10-02T17:32:55.073Z,14.45
2018-10-02T17:34:49.527Z,14.45
2018-10-02T17:35:50.552Z,14.49
2018-10-02T17:37:43.016Z,14.49
2018-10-02T17:38:43.004Z,14.45
2018-10-02T17:40:37.968Z,14.36
2018-10-02T17:41:37.482Z,14.30
2018-10-02T17:43:30.825Z,14.38
2018-10-02T17:44:30.828Z,14.31
2018-10-02T17:46:27.282Z,14.24
2018-10-02T17:47:26.795Z,14.31
2018-10-02T17:49:22.151Z,14.26
2018-10-02T17:50:22.146Z,14.24
2018-10-02T17:52:15.647Z,14.21
2018-10-02T17:53:16.155Z,14.16
2018-10-02T17:55:11.124Z,14.19
2018-10-02T17:56:10.102Z,14.13
2018-10-02T17:58:04.545Z,14.11
2018-10-02T17:59:04.540Z,14.12
2018-10-02T18:01:00.524Z,14.05
2018-10-02T18:02:00.474Z,14.05
2018-10-02T18:03:54.923Z,13.99
2018-10-02T18:04:54.930Z,13.95
2018-10-02T18:06:50.281Z,13.95
2018-10-02T18:07:49.853Z,13.97
2018-10-02T18:09:45.327Z,13.95
2018-10-02T18:10:45.804Z,13.90
2018-10-02T18:12:41.399Z,13.87
2018-10-02T18:13:41.244Z,13.94
2018-10-02T18:15:38.754Z,13.88
2018-10-02T18:16:37.238Z,13.81
2018-10-02T18:18:33.177Z,13.81
2018-10-02T18:19:33.164Z,13.81
2018-10-02T18:21:29.626Z,13.81
2018-10-02T18:22:30.614Z,13.90
2018-10-02T18:24:23.532Z,13.81
2018-10-02T18:25:23.536Z,13.87
2018-10-02T18:27:18.481Z,13.83
2018-10-02T18:28:18.494Z,13.79
2018-10-02T18:30:13.946Z,13.83
2018-10-02T18:31:13.924Z,13.78
2018-10-02T18:33:08.402Z,13.84
2018-10-02T18:34:08.346Z,13.84
2018-10-02T18:36:04.332Z,13.84
2018-10-02T18:37:04.332Z,13.83
2018-10-02T18:39:00.259Z,13.83
2018-10-02T18:40:00.798Z,13.90
2018-10-02T18:41:56.181Z,13.88
2018-10-02T18:42:56.745Z,13.93
2018-10-02T18:44:52.108Z,13.88
2018-10-02T18:45:52.059Z,13.90
2018-10-02T18:47:47.957Z,13.90
2018-10-02T18:48:46.573Z,13.88
2018-10-02T18:50:40.976Z,13.95
2018-10-02T18:51:40.938Z,13.91
2018-10-02T18:53:36.829Z,13.95
2018-10-02T18:54:35.904Z,13.94
2018-10-02T18:56:31.311Z,14.01
2018-10-02T18:57:31.279Z,13.93
2018-10-02T18:59:25.750Z,14.05
2018-10-02T19:00:25.709Z,14.01
2018-10-02T19:02:21.675Z,14.03
2018-10-02T19:03:21.648Z,14.09
2018-10-02T19:05:17.607Z,14.11
2018-10-02T19:06:17.603Z,14.08
2018-10-02T19:08:13.557Z,14.13
2018-10-02T19:09:14.050Z,14.09